Time;durP1;ratioP1;P1;durP2;ratioP2;P2;SDS_P1;SDS_P2;PMS_P1;PMS_P2;Temp;Humidity;BMP_temperature;BMP_pressure;BME280_temperature;BME280_humidity;BME280_pressure;Samples;Min_cycle;Max_cycle;Signal;HPM_P1;HPM_P2
2022/12/18 00:01:36;;;;;;;21.27;12.47;;;;;;;-7.22;100.00;102336.41;6150567;23;20670;-78
2022/12/18 00:04:18;;;;;;;21.07;12.40;;;;;;;-7.21;100.00;102328.03;6151073;23;20043;-79
2022/12/18 00:06:45;;;;;;;25.93;11.40;;;;;;;-7.26;100.00;102326.72;6154425;23;20025;-78
2022/12/18 00:09:12;;;;;;;21.33;11.23;;;;;;;-7.26;100.00;102316.53;6152955;23;20079;-78
2022/12/18 00:11:39;;;;;;;24.47;10.80;;;;;;;-7.24;100.00;102330.25;6152844;23;20046;-79
2022/12/18 00:14:08;;;;;;;21.57;10.43;;;;;;;-7.25;100.00;102336.09;6153009;23;20120;-78
2022/12/18 00:16:37;;;;;;;19.53;11.83;;;;;;;-7.24;100.00;102342.09;6153003;23;20112;-78
2022/12/18 00:19:05;;;;;;;26.43;14.17;;;;;;;-7.27;100.00;102352.91;6147371;23;20025;-77
2022/12/18 00:21:33;;;;;;;22.40;11.40;;;;;;;-7.20;100.00;102360.31;6149837;23;20028;-78
2022/12/18 00:24:00;;;;;;;20.77;10.77;;;;;;;-7.22;100.00;102356.75;6174419;23;20017;-79
2022/12/18 00:26:31;;;;;;;17.93;10.07;;;;;;;-7.19;100.00;102351.94;6149423;23;20084;-79
2022/12/18 00:29:14;;;;;;;18.43;10.67;;;;;;;-7.22;100.00;102358.38;6150035;23;20055;-79
2022/12/18 00:31:43;;;;;;;17.37;10.03;;;;;;;-7.23;100.00;102351.53;6155633;23;20024;-81
2022/12/18 00:34:13;;;;;;;26.73;12.30;;;;;;;-7.29;100.00;102349.31;6159066;23;20017;-78
2022/12/18 00:36:41;;;;;;;22.93;11.67;;;;;;;-7.25;100.00;102347.94;6157357;23;20021;-79
2022/12/18 00:39:09;;;;;;;19.83;12.47;;;;;;;-7.28;100.00;102343.47;6130788;23;20118;-78
2022/12/18 00:44:20;;;;;;;19.00;10.40;;;;;;;-7.23;100.00;102346.44;6157540;23;20020;-78
2022/12/18 00:46:48;;;;;;;11.50;8.80;;;;;;;-7.23;100.00;102347.31;6155961;23;20028;-78
2022/12/18 00:49:19;;;;;;;17.23;8.77;;;;;;;-7.24;100.00;102348.06;6154445;23;20100;-77
2022/12/18 00:51:46;;;;;;;18.53;9.73;;;;;;;-7.19;100.00;102351.06;6132155;23;20024;-77
2022/12/18 00:54:13;;;;;;;16.93;9.67;;;;;;;-7.23;100.00;102362.59;6158901;23;20037;-80
2022/12/18 00:56:40;;;;;;;16.77;7.57;;;;;;;-7.25;100.00;102355.59;6158371;23;20031;-80
2022/12/18 00:59:08;;;;;;;20.33;9.40;;;;;;;-7.23;100.00;102357.50;6133101;23;20033;-79
2022/12/18 01:01:40;;;;;;;15.83;9.90;;;;;;;-7.22;100.00;102359.31;6133736;23;20024;-77
2022/12/18 01:04:07;;;;;;;20.20;8.97;;;;;;;-7.22;100.00;102364.41;6155826;23;20025;-80
2022/12/18 01:06:34;;;;;;;16.27;9.13;;;;;;;-7.22;100.00;102359.31;6159025;23;20017;-77
2022/12/18 01:09:01;;;;;;;17.33;9.33;;;;;;;-7.24;100.00;102348.06;6158060;23;20017;-81
2022/12/18 01:11:27;;;;;;;20.67;11.17;;;;;;;-7.23;100.00;102349.88;6133694;23;20021;-79
2022/12/18 01:13:55;;;;;;;17.70;9.93;;;;;;;-7.21;100.00;102355.09;6156466;23;20085;-79
2022/12/18 01:16:24;;;;;;;20.57;10.57;;;;;;;-7.22;100.00;102356.75;6129637;23;20017;-78
2022/12/18 01:18:55;;;;;;;16.03;9.73;;;;;;;-7.31;100.00;102350.84;6133858;23;20058;-80
2022/12/18 01:21:24;;;;;;;17.00;11.50;;;;;;;-7.28;100.00;102360.41;6156791;23;20020;-78
2022/12/18 01:23:56;;;;;;;19.60;11.00;;;;;;;-7.29;100.00;102356.06;6132241;23;20031;-78
2022/12/18 01:26:29;;;;;;;21.30;9.93;;;;;;;-7.27;100.00;102350.34;6158512;23;20029;-79
2022/12/18 01:28:58;;;;;;;20.27;10.73;;;;;;;-7.25;100.00;102353.03;6133789;23;20063;-77
2022/12/18 01:31:32;;;;;;;15.70;9.27;;;;;;;-7.31;100.00;102354.25;6158345;23;20456;-77
2022/12/18 01:34:02;;;;;;;13.77;8.60;;;;;;;-7.35;100.00;102362.38;6183104;23;20040;-80
2022/12/18 01:36:34;;;;;;;19.93;10.87;;;;;;;-7.39;100.00;102365.41;6132153;23;20012;-80
2022/12/18 01:39:11;;;;;;;16.23;9.07;;;;;;;-7.43;100.00;102365.88;6154536;23;20040;-79
2022/12/18 01:44:59;;;;;;;16.83;10.03;;;;;;;-7.51;100.00;102370.28;6161777;23;20045;-78
2022/12/18 01:48:04;;;;;;;19.23;8.67;;;;;;;-7.54;100.00;102372.50;6156927;23;20048;-81
2022/12/18 01:50:43;;;;;;;;;;;;;;;-7.52;100.00;102371.03;6088682;23;20021;-78
2022/12/18 01:53:24;;;;;;;16.37;8.73;;;;;;;-7.49;100.00;102370.41;6152449;23;19916;-77
2022/12/18 01:55:59;;;;;;;21.37;10.43;;;;;;;-7.42;100.00;102372.75;6154529;23;20017;-80
2022/12/18 01:58:42;;;;;;;17.00;8.70;;;;;;;-7.39;100.00;102375.59;6174867;23;20062;-78
2022/12/18 02:01:11;;;;;;;15.60;9.00;;;;;;;-7.44;100.00;102384.44;6155641;23;20079;-77
2022/12/18 02:03:37;;;;;;;13.77;8.70;;;;;;;-7.45;100.00;102380.09;6130377;23;20262;-80
2022/12/18 02:06:15;;;;;;;17.93;8.97;;;;;;;-7.49;100.00;102381.47;6131081;23;20044;-80
2022/12/18 02:09:16;;;;;;;15.30;9.00;;;;;;;-7.45;100.00;102386.84;6179732;23;20013;-81
2022/12/18 02:12:21;;;;;;;18.60;8.90;;;;;;;-7.44;100.00;102401.34;6155237;23;20017;-80
2022/12/18 02:15:43;;;;;;;14.87;8.30;;;;;;;-7.51;100.00;102402.41;6165540;23;20096;-80
2022/12/18 02:18:23;;;;;;;21.63;9.97;;;;;;;-7.57;100.00;102392.59;6031610;23;20095;-79
2022/12/18 02:21:05;;;;;;;17.70;9.93;;;;;;;-7.57;100.00;102386.59;6172522;23;20028;-79
2022/12/18 02:23:49;;;;;;;17.37;8.47;;;;;;;-7.64;100.00;102385.13;6152117;23;20010;-80
2022/12/18 02:26:34;;;;;;;21.15;9.07;;;;;;;-7.63;100.00;102388.59;6178049;23;20017;-79
2022/12/18 02:29:11;;;;;;;20.77;8.50;;;;;;;-7.65;100.00;102380.81;6146293;23;20381;-79
2022/12/18 02:31:48;;;;;;;15.90;9.30;;;;;;;-7.69;100.00;102392.34;6151098;23;20040;-79
2022/12/18 02:34:17;;;;;;;19.47;9.13;;;;;;;-7.75;100.00;102388.34;6176916;23;20032;-80
2022/12/18 02:36:45;;;;;;;15.70;8.83;;;;;;;-7.77;100.00;102382.22;6152572;23;20029;-79
2022/12/18 02:39:14;;;;;;;17.50;9.50;;;;;;;-7.83;100.00;102373.25;6150766;23;20032;-77
2022/12/18 02:41:41;;;;;;;14.63;9.30;;;;;;;-7.81;100.00;102376.84;6152750;23;20021;-78
2022/12/18 02:44:12;;;;;;;15.17;8.67;;;;;;;-7.85;100.00;102374.78;6153918;23;20017;-78
2022/12/18 02:46:44;;;;;;;16.43;8.60;;;;;;;-7.86;100.00;102369.53;6153361;23;20013;-77
2022/12/18 02:49:42;;;;;;;16.70;8.73;;;;;;;-7.85;100.00;102364.63;6151955;23;20041;-78
2022/12/18 02:52:42;;;;;;;22.57;11.07;;;;;;;-7.86;100.00;102370.44;6178990;23;20021;-79
2022/12/18 02:55:27;;;;;;;18.67;9.63;;;;;;;-7.89;100.00;102364.19;6128734;23;20580;-78
2022/12/18 02:57:59;;;;;;;15.60;8.63;;;;;;;-7.88;100.00;102371.06;6176558;23;20120;-77
2022/12/18 03:00:41;;;;;;;17.43;9.87;;;;;;;-7.93;100.00;102367.19;6176226;23;20025;-78
2022/12/18 03:03:22;;;;;;;18.70;9.97;;;;;;;-7.98;100.00;102371.81;6152609;23;20024;-78
2022/12/18 03:06:01;;;;;;;16.43;8.83;;;;;;;-8.02;100.00;102368.09;6150832;23;20025;-78
2022/12/18 03:08:39;;;;;;;17.83;10.27;;;;;;;-8.03;100.00;102378.13;6148592;23;20021;-78
2022/12/18 03:11:10;;;;;;;20.10;8.77;;;;;;;-8.07;100.00;102361.72;6147641;23;20116;-79
2022/12/18 03:13:59;;;;;;;19.83;10.87;;;;;;;-8.05;100.00;102366.94;6147847;23;20021;-78
2022/12/18 03:16:30;;;;;;;17.73;9.40;;;;;;;-8.06;100.00;102366.03;6127336;23;20025;-78
2022/12/18 03:19:05;;;;;;;15.27;8.93;;;;;;;-8.09;100.00;102357.25;6151124;23;20080;-79
2022/12/18 03:21:48;;;;;;;14.00;8.90;;;;;;;-8.10;100.00;102350.38;6152366;23;20017;-78
2022/12/18 03:24:18;;;;;;;19.60;9.23;;;;;;;-8.11;100.00;102353.66;6152520;23;20036;-78
2022/12/18 03:26:49;;;;;;;17.33;9.03;;;;;;;-8.08;100.00;102351.38;6152919;23;20025;-78
2022/12/18 03:29:35;;;;;;;23.30;9.83;;;;;;;-8.05;100.00;102352.56;6151730;23;20087;-78
2022/12/18 03:32:30;;;;;;;21.97;9.60;;;;;;;-8.06;100.00;102345.69;6126130;23;20021;-78
2022/12/18 03:35:04;;;;;;;13.23;8.37;;;;;;;-8.04;100.00;102346.75;6169561;23;20059;-77
2022/12/18 03:37:30;;;;;;;19.25;9.30;;;;;;;-8.02;100.00;102357.06;6153627;23;20017;-78
2022/12/18 03:39:57;;;;;;;16.83;9.03;;;;;;;-8.08;100.00;102362.47;6151624;23;20059;-77
2022/12/18 03:42:37;;;;;;;16.93;8.97;;;;;;;-8.05;100.00;102361.84;6128552;23;20064;-81
2022/12/18 03:45:15;;;;;;;19.47;9.10;;;;;;;-8.06;100.00;102373.66;6128467;23;20021;-78
2022/12/18 03:47:57;;;;;;;14.63;8.90;;;;;;;-8.08;100.00;102366.63;6153007;23;20013;-78
2022/12/18 03:50:48;;;;;;;19.87;9.10;;;;;;;-8.12;100.00;102364.56;6155888;23;20023;-79
2022/12/18 03:54:00;;;;;;;14.97;8.37;;;;;;;-8.11;100.00;102366.34;6132635;23;20051;-78
2022/12/18 03:56:31;;;;;;;15.37;8.67;;;;;;;-8.11;100.00;102366.34;6156264;23;20020;-79
2022/12/18 03:59:00;;;;;;;11.80;7.83;;;;;;;-8.15;100.00;102367.72;6155236;23;20021;-79
2022/12/18 04:01:34;;;;;;;14.40;8.20;;;;;;;-8.19;100.00;102375.78;6157235;23;20021;-78
2022/12/18 04:04:03;;;;;;;19.93;8.93;;;;;;;-8.24;100.00;102366.84;6160129;23;20013;-79
2022/12/18 04:06:31;;;;;;;19.00;9.60;;;;;;;-8.22;100.00;102365.34;6164148;23;20017;-79
2022/12/18 04:08:59;;;;;;;16.20;8.87;;;;;;;-8.26;100.00;102371.78;6134159;23;20378;-77
2022/12/18 04:11:26;;;;;;;20.13;9.47;;;;;;;-8.26;100.00;102370.91;6158846;23;20023;-78
2022/12/18 04:13:57;;;;;;;16.43;9.00;;;;;;;-8.26;100.00;102366.69;6154823;23;20836;-78
2022/12/18 04:16:26;;;;;;;17.57;10.13;;;;;;;-8.23;100.00;102366.97;6128035;23;20692;-77
2022/12/18 04:18:53;;;;;;;14.33;8.13;;;;;;;-8.22;100.00;102368.78;6126709;23;20021;-78
2022/12/18 04:21:21;;;;;;;20.77;10.67;;;;;;;-8.15;100.00;102365.16;6152431;23;20013;-78
2022/12/18 04:23:47;;;;;;;15.97;9.63;;;;;;;-8.14;100.00;102370.38;6152781;23;20017;-77
2022/12/18 04:26:14;;;;;;;17.77;8.63;;;;;;;-8.11;100.00;102372.31;6152007;23;20044;-78
2022/12/18 04:28:41;;;;;;;14.90;9.33;;;;;;;-8.13;100.00;102363.69;6151160;23;20032;-78
2022/12/18 04:31:07;;;;;;;16.73;9.27;;;;;;;-8.14;100.00;102360.22;6150376;23;20013;-78
2022/12/18 04:33:34;;;;;;;18.10;9.27;;;;;;;-8.12;100.00;102372.19;6148870;23;20112;-79
2022/12/18 04:36:01;;;;;;;14.80;9.73;;;;;;;-8.11;100.00;102367.25;6148033;23;20126;-81
2022/12/18 04:38:27;;;;;;;15.97;9.30;;;;;;;-8.12;100.00;102362.03;6148240;23;20088;-77
2022/12/18 04:40:54;;;;;;;14.70;8.10;;;;;;;-8.09;100.00;102360.66;6149290;23;20105;-79
2022/12/18 04:43:21;;;;;;;23.03;9.47;;;;;;;-8.10;100.00;102355.44;6150707;23;20017;-80
2022/12/18 04:45:47;;;;;;;18.43;8.03;;;;;;;-8.12;100.00;102357.84;6150862;23;20192;-79
2022/12/18 04:48:14;;;;;;;15.70;9.93;;;;;;;-8.15;100.00;102355.91;6147293;23;20448;-79
2022/12/18 04:50:41;;;;;;;17.50;9.10;;;;;;;-8.13;100.00;102353.50;6123621;23;20017;-80
2022/12/18 04:53:07;;;;;;;16.40;9.20;;;;;;;-8.11;100.00;102349.44;6153160;23;20108;-79
2022/12/18 04:55:34;;;;;;;20.13;9.50;;;;;;;-8.11;100.00;102354.53;6153124;23;20017;-81
2022/12/18 04:58:01;;;;;;;17.23;8.83;;;;;;;-8.15;100.00;102355.00;6151867;23;20028;-79
2022/12/18 05:00:27;;;;;;;15.10;7.83;;;;;;;-8.15;100.00;102350.84;6152515;23;20776;-80
2022/12/18 05:02:54;;;;;;;14.33;8.97;;;;;;;-8.16;100.00;102356.66;6150915;23;20369;-79
2022/12/18 05:05:20;;;;;;;19.13;8.73;;;;;;;-8.18;100.00;102352.19;6148585;23;20020;-79
2022/12/18 05:07:47;;;;;;;18.70;9.37;;;;;;;-8.23;100.00;102350.84;6173694;23;20052;-79
2022/12/18 05:10:14;;;;;;;16.27;9.10;;;;;;;-8.19;100.00;102353.81;6150037;23;20013;-79
2022/12/18 05:12:57;;;;;;;20.17;8.70;;;;;;;-8.19;100.00;102361.44;6151793;23;20025;-79
2022/12/18 05:15:26;;;;;;;20.27;9.88;;;;;;;-8.17;100.00;102364.16;6154961;23;20021;-79
2022/12/18 05:17:52;;;;;;;18.47;9.70;;;;;;;-8.19;100.00;102368.19;6152046;23;20024;-78
2022/12/18 05:20:19;;;;;;;15.23;8.70;;;;;;;-8.22;100.00;102368.78;6151109;23;20076;-79
2022/12/18 05:22:46;;;;;;;21.70;8.60;;;;;;;-8.22;100.00;102367.91;6150171;23;20013;-77
2022/12/18 05:25:13;;;;;;;20.40;8.57;;;;;;;-8.28;100.00;102378.34;6126398;23;20127;-78
2022/12/18 05:27:39;;;;;;;15.63;8.90;;;;;;;-8.32;100.00;102372.09;6152531;23;20371;-77
2022/12/18 05:30:07;;;;;;;12.63;8.87;;;;;;;-8.34;100.00;102372.72;6178050;23;20104;-78
2022/12/18 05:32:33;;;;;;;14.50;8.90;;;;;;;-8.34;100.00;102368.50;6153342;23;20021;-77
2022/12/18 05:35:00;;;;;;;16.20;8.37;;;;;;;-8.30;100.00;102374.78;6178947;23;20055;-77
2022/12/18 05:37:26;;;;;;;14.27;8.20;;;;;;;-8.29;100.00;102380.75;6153283;23;20033;-77
2022/12/18 05:39:53;;;;;;;15.60;8.33;;;;;;;-8.33;100.00;102382.09;6177334;23;20017;-77
2022/12/18 05:42:19;;;;;;;12.03;7.33;;;;;;;-8.35;100.00;102381.97;6150839;23;20021;-77
2022/12/18 05:44:46;;;;;;;18.03;7.93;;;;;;;-8.31;100.00;102388.22;6151450;23;20040;-77
2022/12/18 05:47:12;;;;;;;14.97;8.17;;;;;;;-8.32;100.00;102392.44;6178469;23;20025;-77
2022/12/18 05:49:39;;;;;;;14.03;7.10;;;;;;;-8.34;100.00;102382.88;6153545;23;20128;-78
2022/12/18 05:52:05;;;;;;;14.57;7.73;;;;;;;-8.36;100.00;102395.41;6151898;23;20097;-80
2022/12/18 05:54:32;;;;;;;14.77;7.77;;;;;;;-8.32;100.00;102396.59;6151768;23;20017;-78
2022/12/18 05:56:59;;;;;;;16.17;8.30;;;;;;;-8.22;100.00;102396.72;6152022;23;20032;-78
2022/12/18 05:59:26;;;;;;;15.70;8.30;;;;;;;-8.20;100.00;102397.78;6149815;23;20063;-78
2022/12/18 06:01:52;;;;;;;13.10;7.37;;;;;;;-8.16;100.00;102396.41;6149785;23;20135;-77
2022/12/18 06:04:19;;;;;;;16.90;7.37;;;;;;;-8.12;100.00;102397.59;6150620;23;20093;-78
2022/12/18 06:06:45;;;;;;;11.50;6.40;;;;;;;-8.12;100.00;102389.97;6150796;23;20057;-76
2022/12/18 06:09:12;;;;;;;16.00;7.50;;;;;;;-8.12;100.00;102389.97;6149354;23;20778;-77
2022/12/18 06:11:40;;;;;;;13.33;6.50;;;;;;;-8.14;100.00;102392.38;6124804;23;20045;-78
2022/12/18 06:14:07;;;;;;;13.97;6.77;;;;;;;-8.17;100.00;102392.09;6148612;23;20024;-78
2022/12/18 06:16:34;;;;;;;13.30;7.90;;;;;;;-8.16;100.00;102396.41;6150327;23;20021;-79
2022/12/18 06:19:05;;;;;;;12.60;7.23;;;;;;;-8.19;100.00;102406.28;6152454;23;20021;-79
2022/12/18 06:21:33;;;;;;;12.13;7.40;;;;;;;-8.25;100.00;102400.63;6152655;23;20490;-77
2022/12/18 06:24:01;;;;;;;16.77;7.80;;;;;;;-8.28;100.00;102401.22;6153323;23;20043;-79
2022/12/18 06:26:27;;;;;;;12.73;7.10;;;;;;;-8.23;100.00;102400.00;6152933;23;20048;-77
2022/12/18 06:28:54;;;;;;;17.47;9.40;;;;;;;-8.16;100.00;102397.31;6177433;23;20021;-77
2022/12/18 06:31:21;;;;;;;15.83;9.20;;;;;;;-8.15;100.00;102403.28;6153969;23;20024;-79
2022/12/18 06:33:47;;;;;;;16.10;9.20;;;;;;;-8.16;100.00;102389.69;6154299;23;20107;-81
2022/12/18 06:36:15;;;;;;;12.53;7.13;;;;;;;-8.11;100.00;102395.19;6152692;23;20090;-78
2022/12/18 06:38:44;;;;;;;12.27;7.23;;;;;;;-8.10;100.00;102394.44;6152825;23;20030;-78
2022/12/18 06:41:14;;;;;;;18.27;7.13;;;;;;;-8.09;100.00;102397.91;6149757;23;20112;-78
2022/12/18 06:43:41;;;;;;;13.87;6.77;;;;;;;-8.06;100.00;102400.72;6178452;23;20017;-79
2022/12/18 06:46:08;;;;;;;11.73;7.27;;;;;;;-8.06;100.00;102404.16;6153443;23;20021;-80
2022/12/18 06:48:35;;;;;;;12.17;6.70;;;;;;;-8.05;100.00;102407.59;6154727;23;20326;-79
2022/12/18 06:51:02;;;;;;;14.07;8.13;;;;;;;-8.04;100.00;102412.81;6152422;23;20017;-79
2022/12/18 06:53:29;;;;;;;12.83;6.93;;;;;;;-8.02;100.00;102411.31;6153950;23;20189;-79
2022/12/18 06:56:06;;;;;;;13.77;6.67;;;;;;;-7.98;100.00;102408.31;6154775;23;20467;-79
2022/12/18 06:58:33;;;;;;;12.90;6.93;;;;;;;-8.01;100.00;102408.03;6154187;23;20016;-79
2022/12/18 07:01:02;;;;;;;10.43;7.20;;;;;;;-8.00;100.00;102414.03;6152119;23;20021;-80
2022/12/18 07:03:29;;;;;;;12.53;6.00;;;;;;;-7.99;100.00;102415.78;6177697;23;20021;-78
2022/12/18 07:05:56;;;;;;;10.27;5.90;;;;;;;-7.97;100.00;102420.25;6156257;23;20017;-79
2022/12/18 07:08:22;;;;;;;12.87;5.97;;;;;;;-7.90;100.00;102420.84;6155183;23;20044;-80
2022/12/18 07:10:49;;;;;;;15.13;7.13;;;;;;;-7.91;100.00;102422.50;6154544;23;20100;-79
2022/12/18 07:13:17;;;;;;;14.93;6.97;;;;;;;-7.89;100.00;102420.97;6155559;23;20087;-79
2022/12/18 07:15:45;;;;;;;14.60;7.13;;;;;;;-7.91;100.00;102425.03;6155454;23;20017;-79
2022/12/18 07:18:11;;;;;;;14.77;7.13;;;;;;;-7.83;100.00;102436.81;6152850;23;20013;-79
2022/12/18 07:20:38;;;;;;;13.57;6.77;;;;;;;-7.78;100.00;102441.44;6151145;23;20032;-79
2022/12/18 07:23:05;;;;;;;13.53;7.13;;;;;;;-7.77;100.00;102441.56;6151677;23;20064;-79
2022/12/18 07:25:38;;;;;;;13.83;6.63;;;;;;;-7.78;100.00;102442.34;6152248;23;20021;-79
2022/12/18 07:28:05;;;;;;;12.93;7.40;;;;;;;-7.78;100.00;102438.91;6174555;23;20152;-80
2022/12/18 07:30:32;;;;;;;15.50;7.13;;;;;;;-7.76;100.00;102443.38;6157793;23;20071;-80
2022/12/18 07:32:59;;;;;;;12.60;7.60;;;;;;;-7.75;100.00;102442.63;6155383;23;20069;-79
2022/12/18 07:35:26;;;;;;;16.63;8.30;;;;;;;-7.77;100.00;102445.78;6154484;23;20009;-79
2022/12/18 07:37:53;;;;;;;9.50;6.33;;;;;;;-7.83;100.00;102452.06;6153492;23;20799;-79
2022/12/18 07:40:20;;;;;;;12.27;5.90;;;;;;;-7.86;100.00;102455.97;6177988;23;20021;-80
2022/12/18 07:42:46;;;;;;;9.93;6.30;;;;;;;-7.92;100.00;102452.88;6175907;23;20020;-80
2022/12/18 07:45:13;;;;;;;13.17;6.60;;;;;;;-7.97;100.00;102466.00;6152580;23;20013;-80
2022/12/18 07:47:41;;;;;;;14.67;7.07;;;;;;;-7.96;100.00;102464.38;6177050;23;20052;-80
2022/12/18 07:50:08;;;;;;;12.47;6.70;;;;;;;-8.00;100.00;102473.34;6151690;23;20017;-79
2022/12/18 07:52:34;;;;;;;11.10;6.20;;;;;;;-7.96;100.00;102464.38;6173536;23;20075;-79
2022/12/18 07:55:01;;;;;;;9.13;6.33;;;;;;;-7.93;100.00;102462.13;6150143;23;20017;-79
2022/12/18 07:57:28;;;;;;;16.20;8.03;;;;;;;-7.94;100.00;102456.91;6148881;23;20021;-78
2022/12/18 07:59:55;;;;;;;15.30;6.57;;;;;;;-7.91;100.00;102453.00;6122234;23;20013;-79
2022/12/18 08:02:22;;;;;;;17.33;7.30;;;;;;;-7.86;100.00;102448.34;6147648;23;20568;-77
2022/12/18 08:04:48;;;;;;;15.53;7.37;;;;;;;-7.76;100.00;102437.41;6123638;23;20732;-78
2022/12/18 08:07:25;;;;;;;9.53;6.77;;;;;;;-7.72;100.00;102447.09;6148938;23;20049;-78
2022/12/18 08:09:52;;;;;;;10.27;6.83;;;;;;;-7.67;100.00;102438.25;6151644;23;20028;-78
2022/12/18 08:12:19;;;;;;;11.43;6.67;;;;;;;-7.62;100.00;102433.63;6151331;23;20028;-79
2022/12/18 08:14:46;;;;;;;12.43;7.13;;;;;;;-7.57;100.00;102433.28;6151885;23;20025;-77
2022/12/18 08:17:13;;;;;;;11.30;6.43;;;;;;;-7.54;100.00;102438.66;6177390;23;20017;-78
2022/12/18 08:19:39;;;;;;;16.10;8.43;;;;;;;-7.50;100.00;102437.28;6128197;23;20048;-79
2022/12/18 08:22:06;;;;;;;14.23;7.30;;;;;;;-7.45;100.00;102436.06;6175250;23;20068;-80
2022/12/18 08:24:33;;;;;;;9.57;5.77;;;;;;;-7.41;100.00;102429.63;6146716;23;20017;-78
2022/12/18 08:27:00;;;;;;;12.13;5.87;;;;;;;-7.38;100.00;102433.34;6148216;23;20028;-78
2022/12/18 08:29:26;;;;;;;13.40;7.47;;;;;;;-7.35;100.00;102433.63;6148127;23;20024;-77
2022/12/18 08:31:53;;;;;;;9.87;6.63;;;;;;;-7.26;100.00;102430.13;6148435;23;20041;-81
2022/12/18 08:34:29;;;;;;;10.37;6.57;;;;;;;-7.24;100.00;102431.16;6149041;23;20100;-79
2022/12/18 08:36:55;;;;;;;16.23;7.90;;;;;;;-7.15;100.00;102424.38;6155331;23;20017;-80
2022/12/18 08:39:22;;;;;;;16.23;6.20;;;;;;;-7.08;100.00;102416.53;6163979;23;20081;-80
2022/12/18 08:44:38;;;;;;;12.47;6.43;;;;;;;-6.93;100.00;102411.94;6181709;23;20028;-76
2022/12/18 08:47:07;;;;;;;12.43;7.13;;;;;;;-6.88;100.00;102413.25;6155819;23;20025;-79
2022/12/18 08:49:35;;;;;;;11.63;6.00;;;;;;;-6.85;100.00;102410.97;6153958;23;20486;-79
2022/12/18 08:52:02;;;;;;;9.63;6.40;;;;;;;-6.83;100.00;102411.09;6154083;23;20016;-79
2022/12/18 08:54:30;;;;;;;13.47;7.43;;;;;;;-6.76;100.00;102413.44;6154994;23;20036;-79
2022/12/18 08:56:56;;;;;;;9.73;6.37;;;;;;;-6.71;100.00;102411.34;6154536;23;20023;-79
2022/12/18 08:59:23;;;;;;;13.07;7.07;;;;;;;-6.67;100.00;102416.81;6159079;23;20028;-80
2022/12/18 09:01:50;;;;;;;12.60;7.57;;;;;;;-6.59;100.00;102412.41;6160612;23;20056;-79
2022/12/18 09:04:17;;;;;;;12.43;7.43;;;;;;;-6.59;100.00;102406.44;6135510;23;20024;-80
2022/12/18 09:06:43;;;;;;;13.70;6.53;;;;;;;-6.54;100.00;102412.84;6157606;23;20013;-79
2022/12/18 09:09:10;;;;;;;13.23;7.17;;;;;;;-6.45;100.00;102412.72;6159011;23;20654;-80
2022/12/18 09:11:37;;;;;;;11.80;6.87;;;;;;;-6.38;100.00;102412.53;6160787;23;20024;-79
2022/12/18 09:14:05;;;;;;;12.47;6.57;;;;;;;-6.29;100.00;102412.44;6160921;23;20044;-80
2022/12/18 09:16:34;;;;;;;13.23;6.57;;;;;;;-6.25;100.00;102395.00;6161598;23;20062;-80
2022/12/18 09:19:03;;;;;;;13.83;7.53;;;;;;;-6.16;100.00;102398.34;6157767;23;20017;-80
2022/12/18 09:21:35;;;;;;;10.03;6.53;;;;;;;-6.09;100.00;102387.00;6156940;23;20064;-80
2022/12/18 09:24:02;;;;;;;11.03;6.43;;;;;;;-6.04;100.00;102384.88;6157553;23;20027;-79
2022/12/18 09:26:28;;;;;;;11.90;7.13;;;;;;;-6.00;100.00;102386.91;6155686;23;20056;-77
2022/12/18 09:28:55;;;;;;;12.37;7.30;;;;;;;-5.98;100.00;102393.06;6154340;23;20021;-78
2022/12/18 09:31:26;;;;;;;13.10;7.30;;;;;;;-5.95;100.00;102383.06;6154971;23;20021;-81
2022/12/18 09:33:53;;;;;;;9.50;5.87;;;;;;;-5.92;100.00;102388.41;6179512;23;20107;-80
2022/12/18 09:36:19;;;;;;;14.37;7.10;;;;;;;-5.92;100.00;102387.53;6145746;23;20167;-77
2022/12/18 09:38:46;;;;;;;9.83;5.87;;;;;;;-5.82;100.00;102395.22;6122480;23;20066;-77
2022/12/18 09:41:41;;;;;;;13.00;6.80;;;;;;;-5.72;100.00;102390.16;6120442;23;20100;-76
2022/12/18 09:44:20;;;;;;;12.00;6.17;;;;;;;-5.57;100.00;102390.53;6145924;23;20820;-76
2022/12/18 09:47:11;;;;;;;10.40;5.50;;;;;;;-5.41;100.00;102399.47;6146567;23;20421;-77
2022/12/18 09:49:44;;;;;;;13.17;6.43;;;;;;;-5.20;99.36;102396.19;6119232;23;20112;-76
2022/12/18 09:52:31;;;;;;;12.32;6.18;;;;;;;-5.03;99.03;102405.25;6118600;23;20013;-78
2022/12/18 09:55:04;;;;;;;11.60;6.23;;;;;;;-4.86;97.55;102410.84;6145544;23;20080;-76
2022/12/18 09:57:34;;;;;;;12.32;5.65;;;;;;;-4.75;96.89;102410.03;6120629;23;20025;-77
2022/12/18 10:00:16;;;;;;;12.20;6.93;;;;;;;-4.62;95.84;102408.50;6122159;23;20025;-80
2022/12/18 10:02:44;;;;;;;13.03;6.50;;;;;;;-4.50;94.95;102401.81;6121648;23;20017;-78
2022/12/18 10:05:17;;;;;;;10.77;6.80;;;;;;;-4.43;94.52;102399.00;6123173;23;20014;-79
2022/12/18 10:08:03;;;;;;;17.77;8.23;;;;;;;-4.33;93.54;102405.72;6146034;23;20009;-79
2022/12/18 10:10:57;;;;;;;33.13;16.40;;;;;;;-4.22;93.08;102411.69;6146777;23;20092;-79
2022/12/18 10:13:50;;;;;;;9.52;5.13;;;;;;;-4.07;92.33;102407.78;6123287;23;20100;-77
2022/12/18 10:16:27;;;;;;;11.20;5.50;;;;;;;-3.97;91.62;102417.06;6098751;23;20118;-77
2022/12/18 10:20:01;;;;;;;11.27;6.07;;;;;;;-3.84;90.93;102424.06;6123873;23;20102;-80
2022/12/18 10:23:02;;;;;;;12.13;6.47;;;;;;;-3.68;90.44;102415.91;6121566;23;20100;-78
2022/12/18 10:25:50;;;;;;;10.43;5.95;;;;;;;-3.61;89.47;102409.56;6148834;23;20104;-79
2022/12/18 10:28:19;;;;;;;12.40;5.70;;;;;;;-3.58;89.04;102412.38;6121099;23;20017;-81
2022/12/18 10:30:49;;;;;;;10.63;5.68;;;;;;;-3.55;88.83;102405.81;6123464;23;20068;-77
2022/12/18 10:33:29;;;;;;;11.68;5.40;;;;;;;-3.50;88.48;102404.50;6125233;23;20032;-79
2022/12/18 10:35:56;;;;;;;9.05;5.85;;;;;;;-3.45;88.96;102407.44;6170883;23;20029;-79
2022/12/18 10:38:28;;;;;;;11.52;5.88;;;;;;;-3.38;88.84;102401.09;6153400;23;20021;-80
2022/12/18 10:41:00;;;;;;;9.23;4.57;;;;;;;-3.34;88.17;102401.47;6151651;23;20021;-79
2022/12/18 10:43:30;;;;;;;7.78;5.13;;;;;;;-3.25;88.42;102405.47;6153620;23;20130;-79
2022/12/18 10:46:08;;;;;;;11.20;6.20;;;;;;;-3.18;88.47;102393.25;6178522;23;20021;-79
2022/12/18 10:48:57;;;;;;;7.32;4.80;;;;;;;-3.02;87.81;102391.84;6153639;23;20016;-78
2022/12/18 10:51:35;;;;;;;11.05;4.85;;;;;;;-2.95;86.64;102388.06;6152591;23;20058;-78
2022/12/18 10:54:20;;;;;;;7.85;5.25;;;;;;;-2.94;86.41;102388.16;6153159;23;20076;-77
2022/12/18 10:56:47;;;;;;;9.90;5.45;;;;;;;-2.90;85.75;102381.59;6153543;23;20025;-77
2022/12/18 10:59:16;;;;;;;5.80;4.03;;;;;;;-2.88;87.18;102374.91;6129396;23;20064;-77
2022/12/18 11:01:56;;;;;;;7.18;5.05;;;;;;;-2.83;85.96;102363.31;6178093;23;20044;-81
2022/12/18 11:04:32;;;;;;;10.07;5.78;;;;;;;-2.77;85.81;102357.78;6155212;23;20021;-78
2022/12/18 11:07:02;;;;;;;8.77;4.97;;;;;;;-2.71;85.52;102347.94;6156127;23;20024;-79
2022/12/18 11:09:39;;;;;;;11.57;5.13;;;;;;;-2.62;85.25;102334.91;6156532;23;20057;-78
2022/12/18 11:12:18;;;;;;;7.63;5.63;;;;;;;-2.51;84.33;102342.56;6182988;23;20017;-80
2022/12/18 11:14:54;;;;;;;7.70;5.15;;;;;;;-2.41;83.64;102353.50;6157087;23;20108;-80
2022/12/18 11:17:34;;;;;;;10.93;5.60;;;;;;;-2.34;83.00;102363.41;6157009;23;20039;-79
2022/12/18 11:20:06;;;;;;;7.70;4.40;;;;;;;-2.34;82.84;102359.16;6180671;23;20596;-77
2022/12/18 11:22:36;;;;;;;6.78;4.85;;;;;;;-2.37;82.85;102364.09;6156772;23;20021;-79
2022/12/18 11:25:19;;;;;;;5.80;4.07;;;;;;;-2.39;82.52;102363.06;6155432;23;20023;-80
2022/12/18 11:27:59;;;;;;;6.10;4.15;;;;;;;-2.38;83.54;102367.44;6154017;23;20052;-79
2022/12/18 11:30:32;;;;;;;5.95;4.40;;;;;;;-2.38;83.11;102364.00;6178066;23;20067;-79
2022/12/18 11:33:22;;;;;;;7.40;3.97;;;;;;;-2.40;82.79;102357.84;6176782;23;20669;-78
2022/12/18 11:36:03;;;;;;;5.55;4.72;;;;;;;-2.40;83.54;102353.63;6154593;23;20036;-78
2022/12/18 11:38:33;;;;;;;8.13;4.55;;;;;;;-2.41;83.58;102353.50;6177348;23;20025;-77
2022/12/18 11:42:08;;;;;;;10.77;4.40;;;;;;;-2.45;83.74;102348.94;6125947;23;20488;-77
2022/12/18 11:44:28;;;;;;;5.72;3.95;;;;;;;-2.50;83.65;102343.50;6175937;23;20020;-78